Time;durP1;ratioP1;P1;durP2;ratioP2;P2;SDS_P1;SDS_P2;PMS_P1;PMS_P2;Temp;Humidity;BMP_temperature;BMP_pressure;BME280_temperature;BME280_humidity;BME280_pressure;Samples;Min_cycle;Max_cycle;Signal;HPM_P1;HPM_P2
2023/01/31 00:01:18;;;;;;;35.00;18.00;;;2.20;99.90;;;;;;495865;239;27430;-75
2023/01/31 00:03:19;;;;;;;35.42;18.50;;;2.30;99.90;;;;;;495837;239;27499;-76
2023/01/31 00:05:20;;;;;;;39.78;21.12;;;2.20;99.90;;;;;;495850;239;27966;-74
2023/01/31 00:07:21;;;;;;;46.22;21.45;;;2.30;99.90;;;;;;495864;239;27888;-75
2023/01/31 00:09:23;;;;;;;36.60;18.92;;;2.20;99.90;;;;;;495859;239;27384;-74
2023/01/31 00:11:24;;;;;;;43.97;22.87;;;2.20;99.90;;;;;;495874;239;27459;-74
2023/01/31 00:13:25;;;;;;;41.95;22.62;;;2.20;99.90;;;;;;495847;239;27393;-74
2023/01/31 00:15:26;;;;;;;35.35;19.70;;;2.20;99.90;;;;;;495841;239;27736;-76
2023/01/31 00:17:28;;;;;;;38.20;18.73;;;2.20;99.90;;;;;;495872;239;27535;-76
2023/01/31 00:19:29;;;;;;;33.53;18.17;;;2.20;99.90;;;;;;495862;239;28094;-74
2023/01/31 00:21:30;;;;;;;37.30;18.25;;;2.20;99.90;;;;;;495865;239;27797;-74
2023/01/31 00:23:31;;;;;;;34.08;17.92;;;2.30;99.90;;;;;;495837;239;28975;-76
2023/01/31 00:25:33;;;;;;;25.73;16.48;;;2.30;99.90;;;;;;495876;239;27500;-76
2023/01/31 00:27:34;;;;;;;34.20;18.27;;;2.30;99.90;;;;;;495864;239;27495;-74
2023/01/31 00:29:35;;;;;;;31.52;19.08;;;2.30;99.90;;;;;;495866;239;27386;-76
2023/01/31 00:31:36;;;;;;;35.97;19.15;;;2.20;99.90;;;;;;495870;239;27546;-74
2023/01/31 00:33:38;;;;;;;45.63;19.00;;;2.20;99.90;;;;;;495851;239;27466;-75
2023/01/31 00:35:39;;;;;;;31.85;18.27;;;2.20;99.90;;;;;;495840;239;27878;-76
2023/01/31 00:37:40;;;;;;;36.55;18.23;;;2.20;99.90;;;;;;495862;239;28604;-75
2023/01/31 00:39:41;;;;;;;29.33;16.10;;;2.20;99.90;;;;;;495874;239;27586;-75
2023/01/31 00:41:43;;;;;;;34.95;19.50;;;2.20;99.90;;;;;;495821;239;27491;-73
2023/01/31 00:43:44;;;;;;;36.67;19.08;;;2.20;99.90;;;;;;495863;239;27499;-76
2023/01/31 00:45:45;;;;;;;50.35;20.23;;;2.20;99.90;;;;;;495843;240;27488;-78
2023/01/31 00:47:46;;;;;;;35.92;18.35;;;2.20;99.90;;;;;;495872;239;27356;-74
2023/01/31 00:49:48;;;;;;;41.92;20.75;;;2.20;99.90;;;;;;495864;239;27500;-76
2023/01/31 00:51:49;;;;;;;32.25;18.33;;;2.20;99.90;;;;;;495861;239;27923;-74
2023/01/31 00:53:50;;;;;;;34.92;18.75;;;2.20;99.90;;;;;;495869;239;27920;-75
2023/01/31 00:55:51;;;;;;;35.22;19.77;;;2.20;99.90;;;;;;495855;239;27503;-76
2023/01/31 00:57:53;;;;;;;28.65;18.12;;;2.30;99.90;;;;;;495862;239;27349;-75
2023/01/31 00:59:54;;;;;;;33.92;19.05;;;2.30;99.90;;;;;;495865;239;27507;-74
2023/01/31 01:01:55;;;;;;;30.37;17.73;;;2.30;99.90;;;;;;495841;239;27712;-74
2023/01/31 01:03:57;;;;;;;36.00;18.50;;;2.30;99.90;;;;;;495868;239;27463;-75
2023/01/31 01:05:58;;;;;;;31.92;18.23;;;2.30;99.90;;;;;;495866;239;27496;-75
2023/01/31 01:07:59;;;;;;;30.48;18.12;;;2.20;99.90;;;;;;495864;239;27915;-75
2023/01/31 01:10:00;;;;;;;29.02;17.52;;;2.20;99.90;;;;;;495872;239;27869;-76
2023/01/31 01:12:02;;;;;;;30.17;18.48;;;2.20;99.90;;;;;;495842;239;27364;-74
2023/01/31 01:14:03;;;;;;;42.33;20.05;;;2.30;99.90;;;;;;495870;239;27574;-75
2023/01/31 01:16:04;;;;;;;31.65;18.05;;;2.20;99.90;;;;;;495852;239;27400;-75
2023/01/31 01:18:05;;;;;;;28.58;16.58;;;2.20;99.90;;;;;;495876;239;27545;-74
2023/01/31 01:20:07;;;;;;;29.85;17.90;;;2.20;99.90;;;;;;495872;239;27483;-75
2023/01/31 01:22:08;;;;;;;35.65;19.40;;;2.20;99.90;;;;;;495840;239;27847;-76
2023/01/31 01:24:09;;;;;;;30.42;16.95;;;2.20;99.90;;;;;;495859;239;27892;-75
2023/01/31 01:26:10;;;;;;;27.62;17.27;;;2.20;99.90;;;;;;495857;239;29057;-74
2023/01/31 01:28:12;;;;;;;28.67;17.98;;;2.20;99.90;;;;;;495858;239;27447;-74
2023/01/31 01:30:13;;;;;;;29.92;17.20;;;2.20;99.90;;;;;;495847;239;27396;-76
2023/01/31 01:32:14;;;;;;;26.85;17.33;;;2.20;99.90;;;;;;495867;239;27388;-75
2023/01/31 01:34:15;;;;;;;33.78;19.02;;;2.20;99.90;;;;;;495859;239;27492;-76
2023/01/31 01:36:20;;;;;;;31.75;18.25;;;2.20;99.90;;;;;;495876;239;27500;-76
2023/01/31 01:38:20;;;;;;;27.17;16.23;;;2.20;99.90;;;;;;495679;239;27911;-76
2023/01/31 01:40:19;;;;;;;34.15;18.48;;;2.20;99.90;;;;;;495783;239;29082;-75
2023/01/31 01:42:20;;;;;;;37.35;18.48;;;2.20;99.90;;;;;;495915;239;27513;-76
2023/01/31 01:44:22;;;;;;;26.80;17.15;;;2.10;99.90;;;;;;495898;239;27512;-76
2023/01/31 01:46:23;;;;;;;32.83;18.40;;;2.10;99.90;;;;;;495911;239;27487;-74
2023/01/31 01:48:24;;;;;;;28.55;17.77;;;2.10;99.90;;;;;;495896;239;27487;-75
2023/01/31 01:50:25;;;;;;;34.40;17.80;;;2.10;99.90;;;;;;495861;239;27408;-76
2023/01/31 01:52:27;;;;;;;26.23;16.17;;;2.20;99.90;;;;;;495885;239;27591;-74
2023/01/31 01:54:28;;;;;;;35.47;18.75;;;2.20;99.90;;;;;;495874;239;27943;-75
2023/01/31 01:56:31;;;;;;;34.08;19.25;;;2.10;99.90;;;;;;495872;239;29066;-74
2023/01/31 01:58:30;;;;;;;37.38;19.30;;;2.10;99.90;;;;;;495791;239;27487;-75
2023/01/31 02:00:32;;;;;;;42.33;20.25;;;2.10;99.90;;;;;;495861;239;27483;-75
2023/01/31 02:02:33;;;;;;;35.35;19.20;;;2.10;99.90;;;;;;495897;239;27507;-75
2023/01/31 02:04:34;;;;;;;37.50;19.52;;;2.10;99.90;;;;;;495870;239;27590;-74
2023/01/31 02:06:35;;;;;;;34.53;18.95;;;2.10;99.90;;;;;;495878;239;27487;-76
2023/01/31 02:08:37;;;;;;;30.52;18.33;;;2.10;99.90;;;;;;495889;239;27435;-75
2023/01/31 02:10:38;;;;;;;44.78;21.02;;;2.10;99.90;;;;;;495850;239;28014;-76
2023/01/31 02:12:39;;;;;;;34.03;18.15;;;2.10;99.90;;;;;;495894;239;27957;-75
2023/01/31 02:14:40;;;;;;;38.45;19.83;;;2.10;99.90;;;;;;495881;239;27444;-75
2023/01/31 02:16:42;;;;;;;35.17;19.80;;;2.10;99.90;;;;;;495880;239;27492;-76
2023/01/31 02:18:43;;;;;;;39.30;19.70;;;2.10;99.90;;;;;;495885;239;27462;-75
2023/01/31 02:20:44;;;;;;;35.72;18.40;;;2.10;99.90;;;;;;495858;239;27479;-75
2023/01/31 02:22:46;;;;;;;37.65;18.80;;;2.10;99.90;;;;;;495871;239;27458;-74
2023/01/31 02:24:47;;;;;;;55.92;22.60;;;2.00;99.90;;;;;;495871;239;27796;-75
2023/01/31 02:26:48;;;;;;;35.00;19.35;;;2.00;99.90;;;;;;495888;239;28070;-75
2023/01/31 02:28:49;;;;;;;43.95;19.08;;;2.00;99.90;;;;;;495879;239;28153;-75
2023/01/31 02:30:51;;;;;;;33.60;19.27;;;2.10;99.90;;;;;;495886;239;27465;-76
2023/01/31 02:32:52;;;;;;;35.22;19.45;;;2.10;99.90;;;;;;495876;239;27495;-76
2023/01/31 02:34:53;;;;;;;50.30;22.70;;;2.10;99.90;;;;;;495856;239;27448;-74
2023/01/31 02:36:54;;;;;;;38.33;19.05;;;2.10;99.90;;;;;;495876;239;27502;-75
2023/01/31 02:38:57;;;;;;;38.13;19.98;;;2.00;99.90;;;;;;495862;239;27354;-74
2023/01/31 02:40:57;;;;;;;32.97;16.73;;;2.10;99.90;;;;;;495781;239;27878;-75
2023/01/31 02:42:58;;;;;;;28.87;16.45;;;2.10;99.90;;;;;;495872;239;27989;-76
2023/01/31 02:44:59;;;;;;;38.55;18.85;;;2.10;99.90;;;;;;495875;239;27431;-75
2023/01/31 02:47:01;;;;;;;35.20;18.50;;;2.10;99.90;;;;;;495888;239;27578;-76
2023/01/31 02:49:02;;;;;;;36.22;17.25;;;2.10;99.90;;;;;;495864;239;27527;-75
2023/01/31 02:51:03;;;;;;;40.67;20.05;;;2.10;99.90;;;;;;495869;239;27459;-74
2023/01/31 02:53:04;;;;;;;38.65;19.30;;;2.00;99.90;;;;;;495872;239;27612;-76
2023/01/31 02:57:25;;;;;;;34.60;17.98;;;2.00;99.90;;;;;;495889;239;27512;-76
2023/01/31 02:59:30;;;;;;;36.88;18.33;;;2.00;99.90;;;;;;495875;239;27471;-74
2023/01/31 03:01:27;;;;;;;29.73;18.15;;;2.00;99.90;;;;;;495648;239;27444;-76
2023/01/31 03:03:32;;;;;;;32.03;17.80;;;2.00;99.90;;;;;;495873;239;27492;-76
2023/01/31 03:05:30;;;;;;;36.78;20.10;;;2.00;99.90;;;;;;495733;239;27458;-75
2023/01/31 03:07:32;;;;;;;34.80;19.00;;;2.00;99.90;;;;;;495897;239;27392;-73
2023/01/31 03:09:35;;;;;;;40.50;19.62;;;2.00;99.90;;;;;;495850;239;28630;-75
2023/01/31 03:11:34;;;;;;;36.40;18.37;;;2.00;99.90;;;;;;495760;239;27885;-75
2023/01/31 03:13:35;;;;;;;39.75;19.30;;;2.00;99.90;;;;;;495864;239;27597;-75
2023/01/31 03:17:56;;;;;;;30.23;16.75;;;2.00;99.90;;;;;;495899;239;27396;-76
2023/01/31 03:19:57;;;;;;;31.98;18.02;;;2.00;99.90;;;;;;495892;239;27475;-76
2023/01/31 03:21:58;;;;;;;45.20;19.40;;;2.00;99.90;;;;;;495861;239;27357;-76
2023/01/31 03:23:59;;;;;;;44.30;19.55;;;2.00;99.90;;;;;;495870;239;27392;-75
2023/01/31 03:26:01;;;;;;;33.83;16.35;;;2.00;99.90;;;;;;495884;239;28024;-75
2023/01/31 03:28:02;;;;;;;39.08;18.77;;;2.00;99.90;;;;;;495890;239;27969;-75
2023/01/31 03:30:03;;;;;;;31.73;16.77;;;2.00;99.90;;;;;;495869;239;27480;-76
2023/01/31 03:32:05;;;;;;;43.53;19.37;;;2.00;99.90;;;;;;495863;239;27488;-74
2023/01/31 03:34:06;;;;;;;33.83;17.45;;;2.00;99.90;;;;;;495879;239;27492;-76
2023/01/31 03:36:07;;;;;;;31.05;16.92;;;2.00;99.90;;;;;;495744;239;27540;-74
2023/01/31 03:38:08;;;;;;;39.85;19.23;;;2.00;99.90;;;;;;495857;239;27379;-76
2023/01/31 03:40:09;;;;;;;33.88;17.40;;;2.00;99.90;;;;;;495840;239;28046;-77
2023/01/31 03:42:12;;;;;;;34.53;19.65;;;1.90;99.90;;;;;;495873;239;29010;-75
2023/01/31 03:44:12;;;;;;;38.97;18.42;;;1.90;99.90;;;;;;495823;239;27488;-75
2023/01/31 03:46:15;;;;;;;37.45;17.25;;;1.90;99.90;;;;;;495879;239;27475;-75
2023/01/31 03:48:17;;;;;;;38.38;19.50;;;1.90;99.90;;;;;;495791;239;27479;-74
2023/01/31 03:50:16;;;;;;;34.22;17.75;;;1.90;99.90;;;;;;495632;239;27468;-75
2023/01/31 03:52:17;;;;;;;35.92;18.15;;;1.90;99.90;;;;;;495861;239;27361;-74
2023/01/31 03:54:18;;;;;;;44.72;19.92;;;1.80;99.90;;;;;;495879;239;27971;-75
2023/01/31 03:56:20;;;;;;;36.85;18.25;;;1.80;99.90;;;;;;495862;239;27805;-75
2023/01/31 03:58:21;;;;;;;30.23;17.40;;;1.80;99.90;;;;;;495856;239;27951;-76
2023/01/31 04:00:22;;;;;;;32.75;17.55;;;1.80;99.90;;;;;;495896;239;27385;-76
2023/01/31 04:02:23;;;;;;;36.85;18.90;;;1.80;99.90;;;;;;495881;239;27538;-75
2023/01/31 04:04:25;;;;;;;36.85;17.77;;;1.80;99.90;;;;;;495858;239;27570;-75
2023/01/31 04:06:26;;;;;;;35.03;16.95;;;1.80;99.90;;;;;;495855;239;27492;-74
2023/01/31 04:08:27;;;;;;;39.47;18.17;;;1.80;99.90;;;;;;495852;239;27376;-75
2023/01/31 04:10:29;;;;;;;41.08;18.48;;;1.80;99.90;;;;;;495871;239;27876;-75
2023/01/31 04:12:30;;;;;;;30.50;16.83;;;1.80;99.90;;;;;;495858;239;27932;-76
2023/01/31 04:14:31;;;;;;;37.35;17.23;;;1.80;99.90;;;;;;495866;239;27570;-75
2023/01/31 04:16:32;;;;;;;31.77;17.50;;;1.80;99.90;;;;;;495862;239;27539;-74
2023/01/31 04:18:33;;;;;;;32.83;16.83;;;1.80;99.90;;;;;;495846;239;27383;-75
2023/01/31 04:20:35;;;;;;;30.10;16.50;;;1.80;99.90;;;;;;495887;239;27480;-75
2023/01/31 04:22:36;;;;;;;29.27;16.37;;;1.70;99.90;;;;;;495843;239;27506;-75
2023/01/31 04:24:37;;;;;;;48.95;19.92;;;1.70;99.90;;;;;;495867;239;27499;-76
2023/01/31 04:26:38;;;;;;;31.92;16.52;;;1.70;99.90;;;;;;495873;239;28588;-75
2023/01/31 04:28:40;;;;;;;38.40;18.15;;;1.70;99.90;;;;;;495861;239;27822;-74
2023/01/31 04:30:41;;;;;;;28.80;16.17;;;1.60;99.90;;;;;;495863;239;27384;-75
2023/01/31 04:32:42;;;;;;;35.88;17.65;;;1.60;99.90;;;;;;495863;239;27523;-75
2023/01/31 04:34:43;;;;;;;32.38;16.52;;;1.70;99.90;;;;;;495883;239;27480;-75
2023/01/31 04:36:45;;;;;;;33.25;17.05;;;1.70;99.90;;;;;;495858;239;27476;-74
2023/01/31 04:38:46;;;;;;;25.50;16.20;;;1.70;99.90;;;;;;495860;239;27402;-75
2023/01/31 04:40:47;;;;;;;33.33;17.87;;;1.70;99.90;;;;;;495862;239;27567;-75
2023/01/31 04:42:48;;;;;;;32.75;17.20;;;1.70;99.90;;;;;;495864;239;27981;-75
2023/01/31 04:44:50;;;;;;;36.17;17.30;;;1.70;99.90;;;;;;495851;239;29063;-75
2023/01/31 04:46:51;;;;;;;32.58;17.80;;;1.70;99.90;;;;;;495868;239;27545;-74
2023/01/31 04:48:52;;;;;;;33.13;17.70;;;1.70;99.90;;;;;;495884;239;27463;-75
2023/01/31 04:50:53;;;;;;;37.25;18.33;;;1.70;99.90;;;;;;495886;239;27380;-77
2023/01/31 04:52:55;;;;;;;30.40;17.00;;;1.60;99.90;;;;;;495875;239;27456;-76
2023/01/31 04:54:56;;;;;;;35.70;15.02;;;1.60;99.90;;;;;;495795;239;27400;-75
2023/01/31 04:56:57;;;;;;;46.42;19.85;;;1.60;99.90;;;;;;495765;239;27924;-75
2023/01/31 04:58:58;;;;;;;43.38;18.87;;;1.70;99.90;;;;;;495810;239;27945;-75
2023/01/31 05:01:00;;;;;;;31.33;16.65;;;1.70;99.90;;;;;;495832;239;27498;-74
2023/01/31 05:03:01;;;;;;;40.90;19.48;;;1.70;99.90;;;;;;495832;239;27440;-74
2023/01/31 05:05:02;;;;;;;35.40;18.12;;;1.70;99.90;;;;;;495814;239;27495;-76
2023/01/31 05:07:03;;;;;;;35.50;18.10;;;1.70;99.90;;;;;;495801;239;27427;-75
2023/01/31 05:09:05;;;;;;;33.42;17.60;;;1.70;99.90;;;;;;495819;239;27348;-75
2023/01/31 05:11:06;;;;;;;32.58;16.77;;;1.60;99.90;;;;;;495825;239;27393;-75
2023/01/31 05:13:07;;;;;;;28.83;16.48;;;1.70;99.90;;;;;;495862;239;27914;-76
2023/01/31 05:15:10;;;;;;;24.85;15.20;;;1.60;99.90;;;;;;495859;239;28954;-76
2023/01/31 05:17:10;;;;;;;36.42;17.05;;;1.60;99.90;;;;;;495764;239;27392;-75
2023/01/31 05:19:11;;;;;;;24.80;14.90;;;1.60;99.90;;;;;;495888;239;27360;-75
2023/01/31 05:21:12;;;;;;;32.88;16.15;;;1.60;99.90;;;;;;495870;239;27590;-76
2023/01/31 05:23:14;;;;;;;27.17;15.15;;;1.60;99.90;;;;;;495868;239;27464;-74
2023/01/31 05:25:15;;;;;;;31.60;15.75;;;1.60;99.90;;;;;;495846;239;27470;-76
2023/01/31 05:27:16;;;;;;;34.90;16.27;;;1.60;99.90;;;;;;495867;239;27483;-75
2023/01/31 05:29:17;;;;;;;25.08;14.70;;;1.50;99.90;;;;;;495839;239;27839;-75
2023/01/31 05:31:19;;;;;;;27.08;14.45;;;1.50;99.90;;;;;;495853;239;27988;-76
2023/01/31 05:33:20;;;;;;;26.27;14.73;;;1.50;99.90;;;;;;495851;239;27434;-76
2023/01/31 05:35:21;;;;;;;31.58;14.23;;;1.50;99.90;;;;;;495848;239;27387;-75
2023/01/31 05:37:22;;;;;;;25.17;13.50;;;1.50;99.90;;;;;;495854;239;27422;-76
2023/01/31 05:39:24;;;;;;;27.17;14.13;;;1.40;99.90;;;;;;495865;239;27432;-75
2023/01/31 05:41:25;;;;;;;24.65;13.82;;;1.40;99.90;;;;;;495878;239;27397;-74
2023/01/31 05:43:26;;;;;;;25.70;13.68;;;1.40;99.90;;;;;;495863;239;27486;-75
2023/01/31 05:45:27;;;;;;;29.55;14.60;;;1.40;99.90;;;;;;495844;239;27982;-75
2023/01/31 05:47:29;;;;;;;24.80;13.07;;;1.40;99.90;;;;;;495869;239;27939;-74
2023/01/31 05:49:32;;;;;;;23.55;13.82;;;1.40;99.90;;;;;;495825;239;27581;-75
2023/01/31 05:51:31;;;;;;;33.17;14.77;;;1.40;99.90;;;;;;495759;239;27387;-75
2023/01/31 05:53:32;;;;;;;36.72;13.50;;;1.40;99.90;;;;;;495871;239;27464;-75
2023/01/31 05:55:34;;;;;;;28.45;13.00;;;1.40;99.90;;;;;;495876;239;27499;-75
2023/01/31 05:57:35;;;;;;;32.35;14.10;;;1.40;99.90;;;;;;495855;239;27348;-75
2023/01/31 05:59:36;;;;;;;29.10;14.02;;;1.50;99.90;;;;;;495828;239;27899;-74
2023/01/31 06:01:37;;;;;;;37.38;15.70;;;1.50;99.90;;;;;;495862;239;27978;-76
2023/01/31 06:03:39;;;;;;;31.60;15.45;;;1.50;99.90;;;;;;495858;239;27443;-75
2023/01/31 06:05:43;;;;;;;25.37;13.60;;;1.50;99.90;;;;;;495865;239;27563;-76
2023/01/31 06:07:44;;;;;;;36.38;15.68;;;1.50;99.90;;;;;;495887;239;28069;-76
2023/01/31 06:09:45;;;;;;;44.00;17.90;;;1.50;99.90;;;;;;495865;239;27815;-75
2023/01/31 06:11:47;;;;;;;37.00;14.27;;;1.50;99.90;;;;;;495886;239;27340;-75
2023/01/31 06:13:48;;;;;;;35.70;17.27;;;1.50;99.90;;;;;;495890;239;27563;-75
2023/01/31 06:16:01;;;;;;;36.75;18.55;;;1.50;99.90;;;;;;495876;239;27420;-75
2023/01/31 06:18:03;;;;;;;37.15;16.33;;;1.50;99.90;;;;;;495872;239;27401;-75
2023/01/31 06:20:04;;;;;;;41.05;17.27;;;1.40;99.90;;;;;;495873;239;27832;-75
2023/01/31 06:22:05;;;;;;;36.03;16.15;;;1.40;99.90;;;;;;495884;239;27546;-75
2023/01/31 06:24:06;;;;;;;35.65;16.77;;;1.40;99.90;;;;;;495883;239;27586;-76
2023/01/31 06:26:08;;;;;;;37.30;15.50;;;1.40;99.90;;;;;;495897;239;27458;-75
2023/01/31 06:28:09;;;;;;;29.67;15.13;;;1.40;99.90;;;;;;495876;239;27967;-76
2023/01/31 06:30:10;;;;;;;38.00;18.20;;;1.40;99.90;;;;;;495884;239;28031;-76
2023/01/31 06:32:11;;;;;;;46.25;17.33;;;1.40;99.90;;;;;;495873;239;27522;-75
2023/01/31 06:34:13;;;;;;;34.85;15.93;;;1.40;99.90;;;;;;495880;239;27484;-75
2023/01/31 06:36:14;;;;;;;40.60;15.60;;;1.40;99.90;;;;;;495878;239;27463;-75
2023/01/31 06:38:15;;;;;;;35.90;15.50;;;1.40;99.90;;;;;;495816;239;27446;-74
2023/01/31 06:40:16;;;;;;;30.08;15.73;;;1.40;99.90;;;;;;495845;239;27474;-75
2023/01/31 06:42:18;;;;;;;34.78;16.60;;;1.50;99.90;;;;;;495852;239;27823;-75
2023/01/31 06:44:19;;;;;;;46.22;18.60;;;1.50;99.90;;;;;;495854;239;27993;-76
2023/01/31 06:46:20;;;;;;;34.53;15.85;;;1.40;99.90;;;;;;495898;239;27446;-75
2023/01/31 06:48:21;;;;;;;30.90;15.52;;;1.40;99.90;;;;;;495866;239;27534;-75
2023/01/31 06:50:23;;;;;;;29.90;14.25;;;1.40;99.90;;;;;;495887;239;27465;-75
2023/01/31 06:52:24;;;;;;;39.83;17.75;;;1.50;99.90;;;;;;495875;239;27433;-75
2023/01/31 06:54:25;;;;;;;30.80;16.48;;;1.50;99.90;;;;;;495842;239;27495;-75
2023/01/31 06:56:26;;;;;;;37.28;16.40;;;1.40;99.90;;;;;;495890;239;27515;-74
2023/01/31 06:58:28;;;;;;;33.97;16.15;;;1.40;99.90;;;;;;495854;239;27983;-75
2023/01/31 07:00:29;;;;;;;40.63;17.37;;;1.50;99.90;;;;;;495891;239;27952;-76
2023/01/31 07:02:30;;;;;;;73.85;18.92;;;1.50;99.90;;;;;;495859;239;27459;-76
2023/01/31 07:04:31;;;;;;;40.88;17.08;;;1.50;99.90;;;;;;495870;239;27477;-75
2023/01/31 07:06:33;;;;;;;35.45;16.27;;;1.50;99.90;;;;;;495871;239;27551;-75
2023/01/31 07:08:34;;;;;;;63.40;19.10;;;1.50;99.90;;;;;;495861;239;27361;-75
2023/01/31 07:10:35;;;;;;;38.05;18.10;;;1.50;99.90;;;;;;495890;239;27530;-76
2023/01/31 07:12:36;;;;;;;41.85;18.70;;;1.40;99.90;;;;;;495869;239;27477;-75
2023/01/31 07:14:38;;;;;;;35.53;16.35;;;1.40;99.90;;;;;;495863;239;27881;-74
2023/01/31 07:16:39;;;;;;;34.35;16.92;;;1.50;99.90;;;;;;495869;239;28665;-74
2023/01/31 07:18:40;;;;;;;41.22;18.73;;;1.50;99.90;;;;;;495844;239;27471;-76
2023/01/31 07:20:41;;;;;;;44.78;17.90;;;1.50;99.90;;;;;;495877;239;27500;-75
2023/01/31 07:22:43;;;;;;;47.72;18.05;;;1.50;99.90;;;;;;495886;239;27503;-74
2023/01/31 07:24:44;;;;;;;91.45;20.23;;;1.50;99.90;;;;;;495876;239;27495;-76
2023/01/31 07:26:45;;;;;;;48.20;18.08;;;1.50;99.90;;;;;;495882;239;27551;-76
2023/01/31 07:28:47;;;;;;;34.10;17.20;;;1.50;99.90;;;;;;495878;239;27518;-75
2023/01/31 07:30:50;;;;;;;47.25;19.02;;;1.50;99.90;;;;;;495877;239;28081;-76
2023/01/31 07:32:49;;;;;;;44.75;18.60;;;1.60;99.90;;;;;;495748;239;27914;-76
2023/01/31 07:34:50;;;;;;;44.80;17.50;;;1.50;99.90;;;;;;495878;239;27387;-75
2023/01/31 07:36:51;;;;;;;44.60;16.80;;;1.50;99.90;;;;;;495876;239;27462;-75
2023/01/31 07:38:53;;;;;;;39.85;16.75;;;1.50;99.90;;;;;;495819;239;27436;-75
2023/01/31 07:40:54;;;;;;;42.75;17.27;;;1.50;99.90;;;;;;495848;239;27596;-74
2023/01/31 07:42:55;;;;;;;39.38;17.37;;;1.50;99.90;;;;;;495887;239;27349;-75
2023/01/31 07:44:57;;;;;;;38.00;16.50;;;1.60;99.90;;;;;;495895;239;27859;-75
2023/01/31 07:46:58;;;;;;;50.63;18.65;;;1.60;99.90;;;;;;495882;239;28041;-77
2023/01/31 07:48:59;;;;;;;36.38;16.12;;;1.50;99.90;;;;;;495892;239;27523;-75
2023/01/31 07:51:00;;;;;;;47.50;17.70;;;1.50;99.90;;;;;;495897;239;27469;-76
2023/01/31 07:53:02;;;;;;;36.78;15.82;;;1.60;99.90;;;;;;495886;239;27519;-74
2023/01/31 07:55:03;;;;;;;38.70;17.87;;;1.60;99.90;;;;;;495883;239;27464;-76
2023/01/31 07:57:04;;;;;;;49.05;17.17;;;1.60;99.90;;;;;;495871;239;27758;-75
2023/01/31 07:59:05;;;;;;;39.30;16.60;;;1.60;99.90;;;;;;495895;239;27445;-74
2023/01/31 08:03:32;;;;;;;35.13;15.73;;;1.60;99.90;;;;;;495858;239;27426;-75
2023/01/31 08:05:33;;;;;;;42.35;17.05;;;1.70;99.90;;;;;;495764;239;27451;-75
2023/01/31 08:07:34;;;;;;;37.30;17.27;;;1.70;99.90;;;;;;495879;239;27460;-75
2023/01/31 08:09:37;;;;;;;47.25;18.12;;;1.70;99.90;;;;;;495770;239;27531;-75
2023/01/31 08:11:37;;;;;;;40.40;16.42;;;1.70;99.90;;;;;;495801;239;27495;-76
2023/01/31 08:13:38;;;;;;;49.42;16.80;;;1.70;99.90;;;;;;495881;239;27553;-76
2023/01/31 08:15:39;;;;;;;48.05;18.60;;;1.70;99.90;;;;;;495841;239;27381;-74
2023/01/31 08:17:41;;;;;;;43.22;18.58;;;1.80;99.90;;;;;;495876;239;27952;-76
2023/01/31 08:19:42;;;;;;;41.17;15.88;;;1.80;99.90;;;;;;495873;239;27899;-75
2023/01/31 08:21:43;;;;;;;42.05;18.42;;;1.80;99.90;;;;;;495863;239;27373;-76
2023/01/31 08:23:44;;;;;;;39.35;17.30;;;1.80;99.90;;;;;;495853;239;27349;-75
2023/01/31 08:25:46;;;;;;;50.08;19.25;;;1.80;99.90;;;;;;495871;239;27368;-74
2023/01/31 08:27:47;;;;;;;40.22;17.65;;;1.80;99.90;;;;;;495828;239;27611;-74
2023/01/31 08:29:48;;;;;;;46.28;18.17;;;1.80;99.90;;;;;;495812;239;27427;-74
2023/01/31 08:31:49;;;;;;;44.75;17.92;;;1.90;99.90;;;;;;495860;239;27400;-76
2023/01/31 08:33:51;;;;;;;44.80;17.37;;;1.90;99.90;;;;;;495854;239;28061;-75
2023/01/31 08:35:52;;;;;;;36.65;17.15;;;2.00;99.90;;;;;;495851;239;27993;-76
2023/01/31 08:37:53;;;;;;;37.65;17.35;;;2.00;99.90;;;;;;495866;239;27500;-75
2023/01/31 08:39:54;;;;;;;33.92;16.65;;;2.00;99.90;;;;;;495858;239;27530;-75
2023/01/31 08:41:56;;;;;;;42.95;17.35;;;2.10;99.90;;;;;;495871;239;27388;-75
2023/01/31 08:43:58;;;;;;;40.08;16.75;;;2.10;99.90;;;;;;495847;239;27882;-75
2023/01/31 08:45:58;;;;;;;43.33;16.25;;;2.10;99.90;;;;;;495808;239;27456;-75
2023/01/31 08:48:00;;;;;;;32.03;16.23;;;2.10;99.90;;;;;;495871;239;28094;-74
2023/01/31 08:50:01;;;;;;;39.75;15.93;;;2.10;99.90;;;;;;495872;239;27884;-74
2023/01/31 08:52:02;;;;;;;39.88;16.42;;;2.00;99.90;;;;;;495857;239;27962;-74
2023/01/31 08:54:03;;;;;;;33.03;16.27;;;2.00;99.90;;;;;;495879;239;27384;-76
2023/01/31 08:56:05;;;;;;;42.25;17.02;;;2.10;99.90;;;;;;495874;239;27436;-75
2023/01/31 08:58:06;;;;;;;38.97;18.23;;;2.10;99.90;;;;;;495844;239;27556;-76
2023/01/31 09:00:07;;;;;;;42.85;17.50;;;2.10;99.90;;;;;;495850;239;27459;-74
2023/01/31 09:02:08;;;;;;;41.92;16.67;;;2.10;99.90;;;;;;495852;239;27456;-75
2023/01/31 09:04:10;;;;;;;34.05;15.40;;;2.20;99.90;;;;;;495852;239;28041;-75
2023/01/31 09:06:11;;;;;;;37.83;18.05;;;2.20;99.90;;;;;;495866;239;28017;-76
2023/01/31 09:08:12;;;;;;;34.55;16.48;;;2.20;99.90;;;;;;495845;239;27518;-75
2023/01/31 09:10:13;;;;;;;42.67;16.95;;;2.10;99.90;;;;;;495854;239;27381;-75
2023/01/31 09:12:15;;;;;;;41.10;16.12;;;2.10;99.90;;;;;;495868;239;27356;-74
2023/01/31 09:14:16;;;;;;;39.65;16.60;;;2.20;99.90;;;;;;495867;239;27415;-76
2023/01/31 09:16:17;;;;;;;33.15;16.58;;;2.20;99.90;;;;;;495858;239;27580;-74
2023/01/31 09:18:18;;;;;;;42.40;17.62;;;2.10;99.90;;;;;;495865;239;27478;-74
2023/01/31 09:20:20;;;;;;;51.10;18.42;;;2.20;99.90;;;;;;495872;239;28042;-75
2023/01/31 09:22:21;;;;;;;42.88;18.02;;;2.10;99.90;;;;;;495870;239;28904;-75
2023/01/31 09:24:22;;;;;;;43.28;19.50;;;2.00;99.90;;;;;;495859;239;27383;-76
2023/01/31 09:26:23;;;;;;;42.62;18.35;;;2.00;99.90;;;;;;495875;239;27423;-75
2023/01/31 09:28:25;;;;;;;41.70;17.98;;;2.00;99.90;;;;;;495893;239;27495;-76
2023/01/31 09:30:26;;;;;;;37.78;17.00;;;2.10;99.90;;;;;;495853;239;27384;-75
2023/01/31 09:32:28;;;;;;;41.95;15.68;;;2.10;99.90;;;;;;495861;239;27423;-75
2023/01/31 09:34:28;;;;;;;38.08;15.50;;;2.10;99.90;;;;;;495792;239;27478;-76
2023/01/31 09:36:30;;;;;;;36.88;17.12;;;2.20;99.90;;;;;;495871;239;27820;-75
2023/01/31 09:38:31;;;;;;;43.03;17.17;;;2.10;99.90;;;;;;495838;239;28067;-76
2023/01/31 09:40:32;;;;;;;38.72;18.70;;;2.10;99.90;;;;;;495868;239;27360;-76
2023/01/31 09:42:33;;;;;;;38.47;18.70;;;2.20;99.90;;;;;;495888;239;27423;-75
2023/01/31 09:44:35;;;;;;;44.67;17.90;;;2.20;99.90;;;;;;495888;239;27491;-75
2023/01/31 09:46:36;;;;;;;36.58;16.67;;;2.10;99.90;;;;;;495890;239;27448;-75
2023/01/31 09:48:37;;;;;;;39.92;16.90;;;2.20;99.90;;;;;;495884;239;27562;-75
2023/01/31 09:50:38;;;;;;;35.45;16.98;;;2.20;99.90;;;;;;495892;239;28027;-73
2023/01/31 09:52:40;;;;;;;38.47;18.40;;;2.30;99.90;;;;;;495888;239;27800;-75
2023/01/31 09:54:41;;;;;;;35.65;16.25;;;2.30;99.90;;;;;;495904;239;27476;-75
2023/01/31 09:56:42;;;;;;;32.83;16.52;;;2.30;99.90;;;;;;495908;239;27542;-76
2023/01/31 09:58:44;;;;;;;35.88;16.48;;;2.30;99.90;;;;;;495862;239;27503;-75
2023/01/31 10:00:45;;;;;;;36.95;17.45;;;2.30;99.90;;;;;;495861;239;27503;-75
2023/01/31 10:02:46;;;;;;;40.75;16.65;;;2.30;99.90;;;;;;495882;239;27449;-75
2023/01/31 10:04:47;;;;;;;39.80;16.67;;;2.30;99.90;;;;;;495886;239;27492;-75
2023/01/31 10:06:49;;;;;;;32.72;15.73;;;2.30;99.90;;;;;;495887;239;27976;-74
2023/01/31 10:08:50;;;;;;;44.08;18.17;;;2.30;99.90;;;;;;495881;239;29053;-75
2023/01/31 10:10:51;;;;;;;33.72;16.92;;;2.30;99.90;;;;;;495886;239;27536;-74
2023/01/31 10:12:52;;;;;;;31.55;15.18;;;2.30;99.90;;;;;;495873;239;27530;-75
2023/01/31 10:14:54;;;;;;;33.90;16.02;;;2.30;99.90;;;;;;495871;239;27480;-75
2023/01/31 10:16:55;;;;;;;47.83;17.70;;;2.40;99.90;;;;;;495904;239;27464;-75
2023/01/31 10:18:56;;;;;;;39.88;17.12;;;2.50;99.90;;;;;;495878;239;27396;-75
2023/01/31 10:20:57;;;;;;;41.58;17.35;;;2.40;99.90;;;;;;495882;239;27408;-77
2023/01/31 10:23:01;;;;;;;35.60;15.10;;;2.40;99.90;;;;;;495874;239;28003;-74
2023/01/31 10:25:02;;;;;;;35.47;16.25;;;2.50;99.90;;;;;;495776;239;27958;-75
2023/01/31 10:27:01;;;;;;;35.00;15.70;;;2.50;99.90;;;;;;495784;239;27529;-75
2023/01/31 10:29:03;;;;;;;28.65;15.25;;;2.60;99.90;;;;;;495854;239;27590;-76